Monday, November 24, 2014, 9:48 AM EST

KPTW, Pottstown Limerick Airport

Location: Royersford, PA, United States Lat: 40.233
Local Time: 9:48 AM EST (14:48 GMT) Lon: -75.55
Time Zone: US/Eastern Elev: 291 ft

Show me the last for .
Show Decoded

2014-11-24 08:54 METAR KPTW 241354Z AUTO 20012G19KT 10SM BKN022 OVC027 19/15 A2968 RMK AO2 SLP046
                 T01890150 =
2014-11-24 07:54 METAR KPTW 241254Z AUTO 20009G15KT 10SM OVC022 18/15 A2968 RMK AO2 SLP049
                 T01830150 =
2014-11-24 06:54 METAR KPTW 241154Z AUTO VRB05KT 10SM BKN017 OVC024 17/15 A2967 RMK AO2 SLP046
                 60056 70058 T01670150 10172 20106 51001 =
2014-11-24 06:52 METAR KPTW 241152Z AUTO 16005KT 10SM BKN017 OVC024 17/15 A2967 RMK AO2 =
2014-11-24 05:54 METAR KPTW 241054Z AUTO 18008KT 10SM BKN014 BKN023 OVC029 17/15 A2968 RMK AO2
                 RAE24 SLP047 P0009 T01670150 =
2014-11-24 05:16 METAR KPTW 241016Z AUTO 19007G15KT 6SM -RA BR BKN009 BKN019 OVC033 16/16 A2967
                 RMK AO2 P0009 T01610156 =
2014-11-24 05:08 METAR KPTW 241008Z AUTO 21008KT 180V240 2 1/2SM RA BR BKN009 OVC021 16/16 A2967
                 RMK AO2 VIS 1 3/4V3 P0008 T01610156 =
2014-11-24 04:54 METAR KPTW 240954Z AUTO 21006KT 7SM -RA OVC009 16/15 A2967 RMK AO2 SLP043 P0006
                 T01610150 =
2014-11-24 04:01 METAR KPTW 240901Z AUTO 17008G15KT 130V200 5SM -RA BR SCT008 OVC014 16/15 A2968
                 RMK AO2 P0001 T01610150 =
2014-11-24 03:54 METAR KPTW 240854Z AUTO 17008G16KT 130V200 4SM -RA BR BKN006 BKN013 OVC018 16/15
                 A2968 RMK AO2 SLP048 P0011 60041 T01610150 56056 =
2014-11-24 01:54 METAR KPTW 240654Z AUTO 10006KT 5SM RA BR OVC005 12/12 A2977 RMK AO2 CIG 004V009
                 PRESFR SLP077 P0010 T01220117 =
2014-11-24 01:05 METAR KPTW 240605Z AUTO 10004KT 6SM -RA BR OVC008 11/10 A2984 RMK AO2 CIG
                 006V013 P0001 T01060100 =
2014-11-24 00:54 METAR KPTW 240554Z AUTO 10003KT 7SM -RA OVC010 11/09 A2985 RMK AO2 RAB02 CIG
                 007V013 PRESFR SLP105 P0002 60002 T01060094 10106 20056 58054 =
2014-11-24 00:50 METAR KPTW 240550Z AUTO 10005KT 6SM -RA BR BKN008 OVC029 10/09 A2985 RMK AO2
                 RAB02 CIG 007V016 PRESFR P0002 =
2014-11-24 00:38 METAR KPTW 240538Z AUTO 09004KT 7SM -RA BKN011 BKN025 OVC042 10/09 A2987 RMK AO2
                 RAB02 P0001 T01000089 =
2014-11-24 00:09 METAR KPTW 240509Z AUTO 00000KT 7SM -RA FEW016 BKN024 OVC039 09/08 A2990 RMK AO2
                 RAB02 P0000 T00940078 =
2014-11-23 23:54 METAR KPTW 240454Z AUTO 07003KT 10SM SCT025 BKN030 OVC040 09/07 A2992 RMK AO2
                 RAE39 SLP128 P0000 T00940072 401390022 =
2014-11-23 22:54 METAR KPTW 240354Z AUTO 09003KT 10SM -RA SCT040 OVC060 09/06 A2997 RMK AO2 RAB34
                 SLP147 P0000 T00890056 =
2014-11-23 20:54 METAR KPTW 240154Z AUTO 06005KT 10SM BKN048 08/00 A3005 RMK AO2 SLP173 T00780000
                 =
2014-11-23 19:54 METAR KPTW 240054Z AUTO 00000KT 10SM CLR 06/M02 A3008 RMK AO2 SLP184 T00611017 =
2014-11-23 17:54 METAR KPTW 232254Z AUTO 00000KT 10SM CLR 07/M02 A3011 RMK AO2 SLP196 T00671022 =
2014-11-23 16:54 METAR KPTW 232154Z AUTO 00000KT 10SM CLR 09/M03 A3012 RMK AO2 SLP198 T00891028 =
2014-11-23 15:54 METAR KPTW 232054Z AUTO VRB03KT 10SM CLR 11/M03 A3012 RMK AO2 SLP197 T01111028
                 56013 =
2014-11-23 14:54 METAR KPTW 231954Z AUTO 15004KT 10SM CLR 13/M04 A3012 RMK AO2 SLP198 T01331039 =
2014-11-23 13:54 METAR KPTW 231854Z AUTO VRB05KT 10SM CLR 14/M04 A3013 RMK AO2 SLP201 T01391044 =
2014-11-23 12:54 METAR KPTW 231754Z AUTO VRB03KT 10SM CLR 12/M04 A3015 RMK AO2 SLP209 T01221044
                 10128 20033 56024 =
2014-11-23 10:54 METAR KPTW 231554Z AUTO 29003KT 10SM CLR 09/M05 A3020 RMK AO2 SLP225 T00941050 =
2014-11-23 09:54 METAR KPTW 231454Z AUTO 25003KT 10SM FEW075 OVC110 08/M05 A3023 RMK AO2 SLP235
                 T00781050 50004 =

Support USWX by starting your Amazon purchase here.